sensor_id;sensor_type;location;lat;lon;timestamp;P1;durP1;ratioP1;P2;durP2;ratioP2
37051;SDS011;22964;52.272;13.356;2022-07-29T00:00:04;5.32;;;1.30;;
37051;SDS011;22964;52.272;13.356;2022-07-29T00:02:31;2.33;;;1.27;;
37051;SDS011;22964;52.272;13.356;2022-07-29T00:04:57;3.10;;;1.35;;
37051;SDS011;22964;52.272;13.356;2022-07-29T00:07:23;3.80;;;1.42;;
37051;SDS011;22964;52.272;13.356;2022-07-29T00:09:49;2.60;;;1.30;;
37051;SDS011;22964;52.272;13.356;2022-07-29T00:12:15;3.47;;;1.50;;
37051;SDS011;22964;52.272;13.356;2022-07-29T00:14:41;3.10;;;1.23;;
37051;SDS011;22964;52.272;13.356;2022-07-29T00:17:06;3.25;;;1.50;;
37051;SDS011;22964;52.272;13.356;2022-07-29T00:19:32;3.97;;;1.40;;
37051;SDS011;22964;52.272;13.356;2022-07-29T00:21:59;3.90;;;1.40;;
37051;SDS011;22964;52.272;13.356;2022-07-29T00:24:25;4.18;;;1.55;;
37051;SDS011;22964;52.272;13.356;2022-07-29T00:26:51;2.53;;;1.38;;
37051;SDS011;22964;52.272;13.356;2022-07-29T00:29:17;2.33;;;1.40;;
37051;SDS011;22964;52.272;13.356;2022-07-29T00:31:42;4.80;;;1.48;;
37051;SDS011;22964;52.272;13.356;2022-07-29T00:34:08;2.70;;;1.50;;
37051;SDS011;22964;52.272;13.356;2022-07-29T00:36:54;3.35;;;1.40;;
37051;SDS011;22964;52.272;13.356;2022-07-29T00:39:19;3.80;;;1.60;;
37051;SDS011;22964;52.272;13.356;2022-07-29T00:41:45;4.15;;;1.70;;
37051;SDS011;22964;52.272;13.356;2022-07-29T00:44:11;3.67;;;1.48;;
37051;SDS011;22964;52.272;13.356;2022-07-29T00:46:37;3.42;;;1.63;;
37051;SDS011;22964;52.272;13.356;2022-07-29T00:49:02;5.40;;;2.10;;
37051;SDS011;22964;52.272;13.356;2022-07-29T00:51:28;3.47;;;1.70;;
37051;SDS011;22964;52.272;13.356;2022-07-29T00:53:55;5.25;;;1.98;;
37051;SDS011;22964;52.272;13.356;2022-07-29T00:56:22;4.13;;;1.75;;
37051;SDS011;22964;52.272;13.356;2022-07-29T00:58:47;5.45;;;2.03;;
37051;SDS011;22964;52.272;13.356;2022-07-29T01:01:15;3.42;;;1.70;;
37051;SDS011;22964;52.272;13.356;2022-07-29T01:03:41;3.58;;;1.83;;
37051;SDS011;22964;52.272;13.356;2022-07-29T01:06:07;5.30;;;2.20;;
37051;SDS011;22964;52.272;13.356;2022-07-29T01:08:33;5.63;;;2.10;;
37051;SDS011;22964;52.272;13.356;2022-07-29T01:10:59;5.88;;;2.00;;
37051;SDS011;22964;52.272;13.356;2022-07-29T01:13:27;5.25;;;1.98;;
37051;SDS011;22964;52.272;13.356;2022-07-29T01:15:56;4.80;;;2.30;;
37051;SDS011;22964;52.272;13.356;2022-07-29T01:18:32;4.88;;;2.20;;
37051;SDS011;22964;52.272;13.356;2022-07-29T01:32:13;3.72;;;2.30;;
37051;SDS011;22964;52.272;13.356;2022-07-29T01:34:53;3.85;;;2.05;;
37051;SDS011;22964;52.272;13.356;2022-07-29T01:38:08;4.40;;;2.10;;
37051;SDS011;22964;52.272;13.356;2022-07-29T01:40:20;3.03;;;1.80;;
37051;SDS011;22964;52.272;13.356;2022-07-29T01:42:48;5.53;;;2.25;;
37051;SDS011;22964;52.272;13.356;2022-07-29T01:45:18;5.57;;;2.28;;
37051;SDS011;22964;52.272;13.356;2022-07-29T01:47:53;3.75;;;2.08;;
37051;SDS011;22964;52.272;13.356;2022-07-29T01:50:26;4.95;;;2.08;;
37051;SDS011;22964;52.272;13.356;2022-07-29T01:53:01;9.32;;;2.03;;
37051;SDS011;22964;52.272;13.356;2022-07-29T01:55:31;4.22;;;2.03;;
37051;SDS011;22964;52.272;13.356;2022-07-29T01:58:01;4.67;;;2.43;;
37051;SDS011;22964;52.272;13.356;2022-07-29T02:00:29;4.50;;;2.03;;
37051;SDS011;22964;52.272;13.356;2022-07-29T02:02:57;6.13;;;2.30;;
37051;SDS011;22964;52.272;13.356;2022-07-29T02:05:26;3.78;;;1.92;;
37051;SDS011;22964;52.272;13.356;2022-07-29T02:07:53;3.58;;;1.90;;
37051;SDS011;22964;52.272;13.356;2022-07-29T02:10:21;4.22;;;2.10;;
37051;SDS011;22964;52.272;13.356;2022-07-29T02:12:50;3.75;;;2.10;;
37051;SDS011;22964;52.272;13.356;2022-07-29T02:15:16;6.00;;;2.03;;
37051;SDS011;22964;52.272;13.356;2022-07-29T02:17:45;5.03;;;2.28;;
37051;SDS011;22964;52.272;13.356;2022-07-29T02:20:15;4.10;;;2.17;;
37051;SDS011;22964;52.272;13.356;2022-07-29T02:22:41;3.65;;;2.10;;
37051;SDS011;22964;52.272;13.356;2022-07-29T02:25:09;3.53;;;2.10;;
37051;SDS011;22964;52.272;13.356;2022-07-29T02:27:36;4.28;;;2.08;;
37051;SDS011;22964;52.272;13.356;2022-07-29T02:30:02;5.13;;;2.08;;
37051;SDS011;22964;52.272;13.356;2022-07-29T02:32:29;8.73;;;2.30;;
37051;SDS011;22964;52.272;13.356;2022-07-29T02:34:57;5.57;;;2.03;;
37051;SDS011;22964;52.272;13.356;2022-07-29T02:37:24;4.68;;;2.33;;
37051;SDS011;22964;52.272;13.356;2022-07-29T02:39:52;5.40;;;2.08;;
37051;SDS011;22964;52.272;13.356;2022-07-29T02:42:19;3.58;;;2.05;;
37051;SDS011;22964;52.272;13.356;2022-07-29T02:44:47;4.97;;;2.13;;
37051;SDS011;22964;52.272;13.356;2022-07-29T02:47:18;4.05;;;2.00;;
37051;SDS011;22964;52.272;13.356;2022-07-29T02:50:05;4.80;;;2.10;;
37051;SDS011;22964;52.272;13.356;2022-07-29T02:52:41;3.72;;;2.20;;
37051;SDS011;22964;52.272;13.356;2022-07-29T02:55:30;3.90;;;2.00;;
37051;SDS011;22964;52.272;13.356;2022-07-29T02:58:01;3.75;;;2.50;;
37051;SDS011;22964;52.272;13.356;2022-07-29T03:00:46;4.95;;;2.30;;
37051;SDS011;22964;52.272;13.356;2022-07-29T03:03:15;4.32;;;2.40;;
37051;SDS011;22964;52.272;13.356;2022-07-29T03:05:43;4.32;;;2.08;;
37051;SDS011;22964;52.272;13.356;2022-07-29T03:08:09;3.75;;;1.90;;
37051;SDS011;22964;52.272;13.356;2022-07-29T03:10:39;4.82;;;2.05;;
37051;SDS011;22964;52.272;13.356;2022-07-29T03:13:07;4.03;;;2.20;;
37051;SDS011;22964;52.272;13.356;2022-07-29T03:15:35;4.38;;;2.30;;
37051;SDS011;22964;52.272;13.356;2022-07-29T03:18:01;8.07;;;2.00;;
37051;SDS011;22964;52.272;13.356;2022-07-29T03:20:27;4.70;;;2.28;;
37051;SDS011;22964;52.272;13.356;2022-07-29T03:22:53;3.63;;;1.90;;
37051;SDS011;22964;52.272;13.356;2022-07-29T03:25:19;4.80;;;2.13;;
37051;SDS011;22964;52.272;13.356;2022-07-29T03:27:46;3.60;;;1.85;;
37051;SDS011;22964;52.272;13.356;2022-07-29T03:30:13;6.15;;;2.17;;
37051;SDS011;22964;52.272;13.356;2022-07-29T03:32:39;5.85;;;2.38;;
37051;SDS011;22964;52.272;13.356;2022-07-29T03:35:06;4.53;;;2.10;;
37051;SDS011;22964;52.272;13.356;2022-07-29T03:37:33;6.80;;;2.20;;
37051;SDS011;22964;52.272;13.356;2022-07-29T03:40:02;4.43;;;1.85;;
37051;SDS011;22964;52.272;13.356;2022-07-29T03:42:31;4.93;;;2.40;;
37051;SDS011;22964;52.272;13.356;2022-07-29T03:44:59;6.28;;;2.00;;
37051;SDS011;22964;52.272;13.356;2022-07-29T03:47:29;3.65;;;2.00;;
37051;SDS011;22964;52.272;13.356;2022-07-29T03:49:59;4.70;;;2.20;;
37051;SDS011;22964;52.272;13.356;2022-07-29T03:52:26;4.07;;;2.22;;
37051;SDS011;22964;52.272;13.356;2022-07-29T03:54:52;4.28;;;2.08;;
37051;SDS011;22964;52.272;13.356;2022-07-29T03:57:19;3.70;;;2.22;;
37051;SDS011;22964;52.272;13.356;2022-07-29T03:59:48;9.15;;;2.50;;
37051;SDS011;22964;52.272;13.356;2022-07-29T04:02:15;5.22;;;2.40;;
37051;SDS011;22964;52.272;13.356;2022-07-29T04:04:41;3.67;;;2.20;;
37051;SDS011;22964;52.272;13.356;2022-07-29T04:07:07;5.40;;;2.20;;
37051;SDS011;22964;52.272;13.356;2022-07-29T04:09:37;4.82;;;2.00;;
37051;SDS011;22964;52.272;13.356;2022-07-29T04:12:03;4.88;;;2.30;;
37051;SDS011;22964;52.272;13.356;2022-07-29T04:14:33;5.55;;;2.20;;
37051;SDS011;22964;52.272;13.356;2022-07-29T04:17:02;5.28;;;2.20;;
37051;SDS011;22964;52.272;13.356;2022-07-29T04:19:29;4.32;;;2.15;;
37051;SDS011;22964;52.272;13.356;2022-07-29T04:21:55;5.22;;;2.15;;
37051;SDS011;22964;52.272;13.356;2022-07-29T04:24:22;3.95;;;2.17;;
37051;SDS011;22964;52.272;13.356;2022-07-29T04:26:47;5.57;;;2.30;;
37051;SDS011;22964;52.272;13.356;2022-07-29T04:29:13;6.15;;;2.22;;
37051;SDS011;22964;52.272;13.356;2022-07-29T04:31:39;5.40;;;2.25;;
37051;SDS011;22964;52.272;13.356;2022-07-29T04:34:06;5.32;;;2.30;;
37051;SDS011;22964;52.272;13.356;2022-07-29T04:36:32;3.80;;;2.22;;
37051;SDS011;22964;52.272;13.356;2022-07-29T04:38:57;3.97;;;2.20;;
37051;SDS011;22964;52.272;13.356;2022-07-29T04:41:23;5.25;;;2.40;;
37051;SDS011;22964;52.272;13.356;2022-07-29T04:43:49;6.20;;;2.45;;
37051;SDS011;22964;52.272;13.356;2022-07-29T04:46:14;5.00;;;2.40;;
37051;SDS011;22964;52.272;13.356;2022-07-29T04:48:40;4.18;;;2.20;;
37051;SDS011;22964;52.272;13.356;2022-07-29T04:51:06;3.95;;;2.10;;
37051;SDS011;22964;52.272;13.356;2022-07-29T04:53:32;4.25;;;2.20;;
37051;SDS011;22964;52.272;13.356;2022-07-29T04:55:57;7.78;;;2.45;;
37051;SDS011;22964;52.272;13.356;2022-07-29T04:58:23;4.22;;;2.30;;
37051;SDS011;22964;52.272;13.356;2022-07-29T05:00:49;5.22;;;2.00;;
37051;SDS011;22964;52.272;13.356;2022-07-29T05:03:15;4.47;;;2.20;;
37051;SDS011;22964;52.272;13.356;2022-07-29T05:05:41;3.97;;;2.10;;
37051;SDS011;22964;52.272;13.356;2022-07-29T05:08:07;4.60;;;1.88;;
37051;SDS011;22964;52.272;13.356;2022-07-29T05:10:33;4.63;;;2.08;;
37051;SDS011;22964;52.272;13.356;2022-07-29T05:13:03;5.18;;;2.60;;
37051;SDS011;22964;52.272;13.356;2022-07-29T05:15:31;4.55;;;2.00;;
37051;SDS011;22964;52.272;13.356;2022-07-29T05:17:57;4.72;;;2.10;;
37051;SDS011;22964;52.272;13.356;2022-07-29T05:20:23;3.92;;;2.15;;
37051;SDS011;22964;52.272;13.356;2022-07-29T05:22:53;5.32;;;2.40;;
37051;SDS011;22964;52.272;13.356;2022-07-29T05:25:26;4.45;;;2.30;;
37051;SDS011;22964;52.272;13.356;2022-07-29T05:27:53;5.15;;;2.20;;
37051;SDS011;22964;52.272;13.356;2022-07-29T05:30:19;3.30;;;2.05;;
37051;SDS011;22964;52.272;13.356;2022-07-29T05:32:45;5.38;;;2.20;;
37051;SDS011;22964;52.272;13.356;2022-07-29T05:35:11;3.30;;;1.98;;
37051;SDS011;22964;52.272;13.356;2022-07-29T05:37:37;4.60;;;2.40;;
37051;SDS011;22964;52.272;13.356;2022-07-29T05:40:03;4.88;;;2.00;;
37051;SDS011;22964;52.272;13.356;2022-07-29T05:42:29;6.60;;;2.10;;
37051;SDS011;22964;52.272;13.356;2022-07-29T05:44:55;4.35;;;1.95;;
37051;SDS011;22964;52.272;13.356;2022-07-29T05:47:21;5.38;;;2.00;;
37051;SDS011;22964;52.272;13.356;2022-07-29T05:49:47;3.60;;;1.90;;
37051;SDS011;22964;52.272;13.356;2022-07-29T05:52:13;4.30;;;2.10;;
37051;SDS011;22964;52.272;13.356;2022-07-29T05:54:39;5.70;;;2.30;;
37051;SDS011;22964;52.272;13.356;2022-07-29T05:57:05;3.88;;;2.00;;
37051;SDS011;22964;52.272;13.356;2022-07-29T05:59:35;4.32;;;2.20;;
37051;SDS011;22964;52.272;13.356;2022-07-29T06:02:01;5.35;;;1.92;;
37051;SDS011;22964;52.272;13.356;2022-07-29T06:04:27;3.70;;;2.15;;
37051;SDS011;22964;52.272;13.356;2022-07-29T06:06:52;5.20;;;1.90;;
37051;SDS011;22964;52.272;13.356;2022-07-29T06:09:18;5.75;;;2.20;;
37051;SDS011;22964;52.272;13.356;2022-07-29T06:11:44;4.40;;;2.38;;
37051;SDS011;22964;52.272;13.356;2022-07-29T06:14:09;6.85;;;2.03;;
37051;SDS011;22964;52.272;13.356;2022-07-29T06:16:35;4.55;;;2.22;;
37051;SDS011;22964;52.272;13.356;2022-07-29T06:19:00;3.83;;;1.92;;
37051;SDS011;22964;52.272;13.356;2022-07-29T06:21:26;4.38;;;2.08;;
37051;SDS011;22964;52.272;13.356;2022-07-29T06:23:52;3.90;;;2.08;;
37051;SDS011;22964;52.272;13.356;2022-07-29T06:26:17;3.53;;;2.00;;
37051;SDS011;22964;52.272;13.356;2022-07-29T06:28:43;4.93;;;2.03;;
37051;SDS011;22964;52.272;13.356;2022-07-29T06:31:09;6.10;;;2.15;;
37051;SDS011;22964;52.272;13.356;2022-07-29T06:33:34;4.00;;;1.83;;
37051;SDS011;22964;52.272;13.356;2022-07-29T06:36:00;5.88;;;2.13;;
37051;SDS011;22964;52.272;13.356;2022-07-29T06:38:29;4.57;;;1.98;;
37051;SDS011;22964;52.272;13.356;2022-07-29T06:40:55;5.22;;;1.90;;
37051;SDS011;22964;52.272;13.356;2022-07-29T06:43:46;6.80;;;2.10;;
37051;SDS011;22964;52.272;13.356;2022-07-29T06:46:13;5.05;;;2.05;;
37051;SDS011;22964;52.272;13.356;2022-07-29T06:48:42;2.92;;;1.70;;
37051;SDS011;22964;52.272;13.356;2022-07-29T06:51:09;4.30;;;2.20;;
37051;SDS011;22964;52.272;13.356;2022-07-29T06:53:35;5.10;;;1.90;;
37051;SDS011;22964;52.272;13.356;2022-07-29T06:56:01;9.18;;;2.47;;
37051;SDS011;22964;52.272;13.356;2022-07-29T06:58:29;3.53;;;1.85;;
37051;SDS011;22964;52.272;13.356;2022-07-29T07:00:58;3.15;;;1.67;;
37051;SDS011;22964;52.272;13.356;2022-07-29T07:03:26;6.47;;;2.00;;
37051;SDS011;22964;52.272;13.356;2022-07-29T07:05:52;8.73;;;2.03;;
37051;SDS011;22964;52.272;13.356;2022-07-29T07:08:18;6.53;;;1.90;;
37051;SDS011;22964;52.272;13.356;2022-07-29T07:10:45;4.70;;;1.92;;
37051;SDS011;22964;52.272;13.356;2022-07-29T07:13:11;4.50;;;1.67;;
37051;SDS011;22964;52.272;13.356;2022-07-29T07:15:37;4.80;;;1.83;;
37051;SDS011;22964;52.272;13.356;2022-07-29T07:18:04;3.55;;;1.80;;
37051;SDS011;22964;52.272;13.356;2022-07-29T07:20:33;4.35;;;1.77;;
37051;SDS011;22964;52.272;13.356;2022-07-29T07:22:59;5.03;;;1.70;;
37051;SDS011;22964;52.272;13.356;2022-07-29T07:25:25;6.25;;;1.90;;
37051;SDS011;22964;52.272;13.356;2022-07-29T07:27:51;3.97;;;1.80;;
37051;SDS011;22964;52.272;13.356;2022-07-29T07:30:17;10.35;;;1.98;;
37051;SDS011;22964;52.272;13.356;2022-07-29T07:32:42;7.38;;;2.05;;
37051;SDS011;22964;52.272;13.356;2022-07-29T07:35:08;3.55;;;1.80;;
37051;SDS011;22964;52.272;13.356;2022-07-29T07:37:35;5.85;;;1.80;;
37051;SDS011;22964;52.272;13.356;2022-07-29T07:40:02;6.68;;;2.00;;
37051;SDS011;22964;52.272;13.356;2022-07-29T07:42:29;4.10;;;1.80;;
37051;SDS011;22964;52.272;13.356;2022-07-29T07:44:54;5.53;;;1.80;;
37051;SDS011;22964;52.272;13.356;2022-07-29T07:47:20;3.40;;;1.70;;
37051;SDS011;22964;52.272;13.356;2022-07-29T07:49:46;5.72;;;1.80;;
37051;SDS011;22964;52.272;13.356;2022-07-29T07:52:12;5.05;;;1.60;;
37051;SDS011;22964;52.272;13.356;2022-07-29T07:54:38;3.60;;;1.65;;
37051;SDS011;22964;52.272;13.356;2022-07-29T07:57:04;6.18;;;1.65;;
37051;SDS011;22964;52.272;13.356;2022-07-29T07:59:30;8.80;;;1.60;;
37051;SDS011;22964;52.272;13.356;2022-07-29T08:01:55;3.83;;;1.55;;
37051;SDS011;22964;52.272;13.356;2022-07-29T08:04:21;4.40;;;1.60;;
37051;SDS011;22964;52.272;13.356;2022-07-29T08:06:47;4.85;;;1.58;;
37051;SDS011;22964;52.272;13.356;2022-07-29T08:09:14;5.03;;;1.60;;
37051;SDS011;22964;52.272;13.356;2022-07-29T08:11:40;3.13;;;1.50;;
37051;SDS011;22964;52.272;13.356;2022-07-29T08:14:06;4.18;;;1.52;;
37051;SDS011;22964;52.272;13.356;2022-07-29T08:16:31;4.30;;;1.70;;
37051;SDS011;22964;52.272;13.356;2022-07-29T08:18:57;3.28;;;1.40;;
37051;SDS011;22964;52.272;13.356;2022-07-29T08:21:23;2.75;;;1.50;;
37051;SDS011;22964;52.272;13.356;2022-07-29T08:23:51;3.72;;;1.55;;
37051;SDS011;22964;52.272;13.356;2022-07-29T08:26:19;4.85;;;1.50;;
37051;SDS011;22964;52.272;13.356;2022-07-29T08:28:46;3.33;;;1.60;;
37051;SDS011;22964;52.272;13.356;2022-07-29T08:31:14;5.32;;;1.60;;
37051;SDS011;22964;52.272;13.356;2022-07-29T08:33:41;4.53;;;1.67;;
37051;SDS011;22964;52.272;13.356;2022-07-29T08:36:07;3.47;;;1.52;;
37051;SDS011;22964;52.272;13.356;2022-07-29T08:38:33;3.28;;;1.58;;
37051;SDS011;22964;52.272;13.356;2022-07-29T08:41:02;4.50;;;1.60;;
37051;SDS011;22964;52.272;13.356;2022-07-29T08:43:28;9.57;;;2.15;;
37051;SDS011;22964;52.272;13.356;2022-07-29T08:45:54;6.40;;;2.20;;
37051;SDS011;22964;52.272;13.356;2022-07-29T08:48:21;5.20;;;1.92;;
37051;SDS011;22964;52.272;13.356;2022-07-29T08:50:48;3.80;;;1.38;;
37051;SDS011;22964;52.272;13.356;2022-07-29T08:53:19;3.90;;;1.60;;
37051;SDS011;22964;52.272;13.356;2022-07-29T08:55:47;4.72;;;1.60;;
37051;SDS011;22964;52.272;13.356;2022-07-29T08:58:14;4.20;;;1.50;;
37051;SDS011;22964;52.272;13.356;2022-07-29T09:00:42;2.22;;;1.40;;
37051;SDS011;22964;52.272;13.356;2022-07-29T09:03:15;2.70;;;1.50;;
37051;SDS011;22964;52.272;13.356;2022-07-29T09:05:44;5.68;;;1.60;;
37051;SDS011;22964;52.272;13.356;2022-07-29T09:08:11;5.63;;;1.58;;
37051;SDS011;22964;52.272;13.356;2022-07-29T09:10:38;3.72;;;1.50;;
37051;SDS011;22964;52.272;13.356;2022-07-29T09:13:04;3.42;;;1.30;;
37051;SDS011;22964;52.272;13.356;2022-07-29T09:15:30;2.72;;;1.50;;
37051;SDS011;22964;52.272;13.356;2022-07-29T09:17:56;4.22;;;1.60;;
37051;SDS011;22964;52.272;13.356;2022-07-29T09:20:23;5.75;;;1.58;;
37051;SDS011;22964;52.272;13.356;2022-07-29T09:22:50;3.28;;;1.70;;
37051;SDS011;22964;52.272;13.356;2022-07-29T09:25:34;3.58;;;1.60;;
37051;SDS011;22964;52.272;13.356;2022-07-29T09:28:13;3.58;;;1.65;;
37051;SDS011;22964;52.272;13.356;2022-07-29T09:30:56;3.25;;;1.50;;
37051;SDS011;22964;52.272;13.356;2022-07-29T09:33:32;2.65;;;1.52;;
37051;SDS011;22964;52.272;13.356;2022-07-29T09:36:04;3.83;;;1.90;;
37051;SDS011;22964;52.272;13.356;2022-07-29T09:38:31;3.65;;;1.67;;
37051;SDS011;22964;52.272;13.356;2022-07-29T09:40:57;2.65;;;1.50;;
37051;SDS011;22964;52.272;13.356;2022-07-29T09:43:25;2.33;;;1.30;;
37051;SDS011;22964;52.272;13.356;2022-07-29T09:45:50;5.55;;;1.85;;
37051;SDS011;22964;52.272;13.356;2022-07-29T09:48:18;4.57;;;1.50;;
37051;SDS011;22964;52.272;13.356;2022-07-29T09:50:46;3.67;;;1.50;;
37051;SDS011;22964;52.272;13.356;2022-07-29T09:53:36;12.25;;;2.42;;
37051;SDS011;22964;52.272;13.356;2022-07-29T09:56:03;7.00;;;1.45;;
37051;SDS011;22964;52.272;13.356;2022-07-29T09:58:30;3.15;;;1.65;;
37051;SDS011;22964;52.272;13.356;2022-07-29T10:00:55;3.97;;;1.50;;
37051;SDS011;22964;52.272;13.356;2022-07-29T10:03:22;2.78;;;1.40;;
37051;SDS011;22964;52.272;13.356;2022-07-29T10:06:04;3.72;;;1.65;;
37051;SDS011;22964;52.272;13.356;2022-07-29T10:08:31;3.00;;;1.50;;
37051;SDS011;22964;52.272;13.356;2022-07-29T10:11:10;4.45;;;1.48;;
37051;SDS011;22964;52.272;13.356;2022-07-29T10:13:41;3.50;;;1.52;;
37051;SDS011;22964;52.272;13.356;2022-07-29T10:16:08;4.32;;;1.60;;
37051;SDS011;22964;52.272;13.356;2022-07-29T10:18:35;2.17;;;1.30;;
37051;SDS011;22964;52.272;13.356;2022-07-29T10:21:04;3.15;;;1.52;;
37051;SDS011;22964;52.272;13.356;2022-07-29T10:23:30;2.83;;;1.52;;
37051;SDS011;22964;52.272;13.356;2022-07-29T10:25:56;3.47;;;1.48;;
37051;SDS011;22964;52.272;13.356;2022-07-29T10:28:22;4.88;;;1.40;;
37051;SDS011;22964;52.272;13.356;2022-07-29T10:30:52;2.88;;;1.60;;
37051;SDS011;22964;52.272;13.356;2022-07-29T10:41:24;2.92;;;1.60;;
37051;SDS011;22964;52.272;13.356;2022-07-29T10:44:21;3.60;;;1.80;;
37051;SDS011;22964;52.272;13.356;2022-07-29T10:46:48;4.00;;;1.67;;
37051;SDS011;22964;52.272;13.356;2022-07-29T10:49:16;2.00;;;1.40;;
37051;SDS011;22964;52.272;13.356;2022-07-29T10:54:36;3.47;;;1.65;;
37051;SDS011;22964;52.272;13.356;2022-07-29T10:59:47;2.63;;;1.60;;
37051;SDS011;22964;52.272;13.356;2022-07-29T11:05:02;3.30;;;1.80;;
37051;SDS011;22964;52.272;13.356;2022-07-29T11:07:35;3.60;;;1.70;;
37051;SDS011;22964;52.272;13.356;2022-07-29T11:15:14;2.90;;;1.60;;
37051;SDS011;22964;52.272;13.356;2022-07-29T11:31:34;3.88;;;1.60;;
37051;SDS011;22964;52.272;13.356;2022-07-29T11:44:53;5.72;;;1.75;;
37051;SDS011;22964;52.272;13.356;2022-07-29T11:47:20;2.60;;;1.55;;
37051;SDS011;22964;52.272;13.356;2022-07-29T11:49:46;2.80;;;1.60;;
37051;SDS011;22964;52.272;13.356;2022-07-29T11:52:13;4.50;;;1.70;;
37051;SDS011;22964;52.272;13.356;2022-07-29T11:54:39;2.63;;;1.50;;
37051;SDS011;22964;52.272;13.356;2022-07-29T11:57:08;2.90;;;1.63;;
37051;SDS011;22964;52.272;13.356;2022-07-29T11:59:41;2.33;;;1.60;;
37051;SDS011;22964;52.272;13.356;2022-07-29T12:02:08;3.70;;;1.75;;
37051;SDS011;22964;52.272;13.356;2022-07-29T12:04:34;4.78;;;1.70;;
37051;SDS011;22964;52.272;13.356;2022-07-29T12:07:15;2.90;;;1.83;;
37051;SDS011;22964;52.272;13.356;2022-07-29T12:09:49;2.72;;;1.58;;
37051;SDS011;22964;52.272;13.356;2022-07-29T12:12:16;4.93;;;1.70;;
37051;SDS011;22964;52.272;13.356;2022-07-29T12:14:42;3.17;;;1.60;;
37051;SDS011;22964;52.272;13.356;2022-07-29T12:17:25;3.30;;;1.70;;
37051;SDS011;22964;52.272;13.356;2022-07-29T12:19:58;11.93;;;1.98;;
37051;SDS011;22964;52.272;13.356;2022-07-29T12:22:32;3.10;;;1.70;;
37051;SDS011;22964;52.272;13.356;2022-07-29T12:25:03;4.95;;;1.60;;
37051;SDS011;22964;52.272;13.356;2022-07-29T12:27:31;2.67;;;1.70;;
37051;SDS011;22964;52.272;13.356;2022-07-29T12:30:02;2.95;;;1.65;;
37051;SDS011;22964;52.272;13.356;2022-07-29T12:32:31;3.97;;;1.83;;
37051;SDS011;22964;52.272;13.356;2022-07-29T12:35:13;2.30;;;1.60;;
37051;SDS011;22964;52.272;13.356;2022-07-29T12:37:41;4.28;;;1.73;;
37051;SDS011;22964;52.272;13.356;2022-07-29T12:40:09;3.10;;;1.67;;
37051;SDS011;22964;52.272;13.356;2022-07-29T12:42:36;4.95;;;1.60;;
37051;SDS011;22964;52.272;13.356;2022-07-29T12:45:02;2.78;;;1.67;;
37051;SDS011;22964;52.272;13.356;2022-07-29T12:47:29;5.05;;;1.50;;
37051;SDS011;22964;52.272;13.356;2022-07-29T12:50:08;3.42;;;1.55;;
37051;SDS011;22964;52.272;13.356;2022-07-29T12:52:34;2.80;;;1.60;;
37051;SDS011;22964;52.272;13.356;2022-07-29T12:55:00;3.15;;;1.80;;
37051;SDS011;22964;52.272;13.356;2022-07-29T12:57:27;2.90;;;1.60;;
37051;SDS011;22964;52.272;13.356;2022-07-29T13:00:00;3.65;;;1.73;;
37051;SDS011;22964;52.272;13.356;2022-07-29T13:02:33;5.13;;;1.60;;
37051;SDS011;22964;52.272;13.356;2022-07-29T13:04:59;3.30;;;1.50;;
37051;SDS011;22964;52.272;13.356;2022-07-29T13:07:27;4.20;;;1.60;;
37051;SDS011;22964;52.272;13.356;2022-07-29T13:09:54;3.15;;;1.60;;
37051;SDS011;22964;52.272;13.356;2022-07-29T13:12:37;3.58;;;1.50;;
37051;SDS011;22964;52.272;13.356;2022-07-29T13:15:13;2.25;;;1.35;;
37051;SDS011;22964;52.272;13.356;2022-07-29T13:17:40;2.00;;;1.40;;
37051;SDS011;22964;52.272;13.356;2022-07-29T13:20:08;3.55;;;1.48;;
37051;SDS011;22964;52.272;13.356;2022-07-29T13:22:37;7.15;;;1.85;;
37051;SDS011;22964;52.272;13.356;2022-07-29T13:25:04;2.65;;;1.60;;
37051;SDS011;22964;52.272;13.356;2022-07-29T13:27:36;4.32;;;1.60;;
37051;SDS011;22964;52.272;13.356;2022-07-29T13:30:07;2.13;;;1.42;;
37051;SDS011;22964;52.272;13.356;2022-07-29T13:32:34;2.97;;;1.60;;
37051;SDS011;22964;52.272;13.356;2022-07-29T13:35:05;2.22;;;1.50;;
37051;SDS011;22964;52.272;13.356;2022-07-29T13:37:33;2.92;;;1.40;;
37051;SDS011;22964;52.272;13.356;2022-07-29T13:40:00;3.80;;;1.42;;
37051;SDS011;22964;52.272;13.356;2022-07-29T13:42:27;2.90;;;1.60;;
37051;SDS011;22964;52.272;13.356;2022-07-29T13:44:53;3.30;;;1.40;;
37051;SDS011;22964;52.272;13.356;2022-07-29T13:47:20;2.33;;;1.45;;
37051;SDS011;22964;52.272;13.356;2022-07-29T13:49:46;4.05;;;1.60;;
37051;SDS011;22964;52.272;13.356;2022-07-29T13:52:12;2.25;;;1.50;;
37051;SDS011;22964;52.272;13.356;2022-07-29T13:54:38;2.60;;;1.70;;
37051;SDS011;22964;52.272;13.356;2022-07-29T13:57:04;3.22;;;1.45;;
37051;SDS011;22964;52.272;13.356;2022-07-29T13:59:30;2.58;;;1.58;;
37051;SDS011;22964;52.272;13.356;2022-07-29T14:01:56;2.38;;;1.40;;
37051;SDS011;22964;52.272;13.356;2022-07-29T14:04:22;2.75;;;1.50;;
37051;SDS011;22964;52.272;13.356;2022-07-29T14:06:48;2.72;;;1.50;;
37051;SDS011;22964;52.272;13.356;2022-07-29T14:09:14;5.22;;;1.70;;
37051;SDS011;22964;52.272;13.356;2022-07-29T14:11:40;4.00;;;1.40;;
37051;SDS011;22964;52.272;13.356;2022-07-29T14:14:06;2.75;;;1.52;;
37051;SDS011;22964;52.272;13.356;2022-07-29T14:16:32;2.35;;;1.50;;
37051;SDS011;22964;52.272;13.356;2022-07-29T14:18:58;2.17;;;1.45;;
37051;SDS011;22964;52.272;13.356;2022-07-29T14:21:24;2.70;;;1.40;;
37051;SDS011;22964;52.272;13.356;2022-07-29T14:23:50;2.40;;;1.33;;
37051;SDS011;22964;52.272;13.356;2022-07-29T14:26:17;2.33;;;1.50;;
37051;SDS011;22964;52.272;13.356;2022-07-29T14:28:42;4.15;;;1.55;;
37051;SDS011;22964;52.272;13.356;2022-07-29T14:31:08;3.58;;;1.45;;
37051;SDS011;22964;52.272;13.356;2022-07-29T14:33:34;4.43;;;1.83;;
37051;SDS011;22964;52.272;13.356;2022-07-29T14:36:00;2.28;;;1.40;;
37051;SDS011;22964;52.272;13.356;2022-07-29T14:38:26;3.50;;;1.83;;
37051;SDS011;22964;52.272;13.356;2022-07-29T14:40:51;8.60;;;1.60;;
37051;SDS011;22964;52.272;13.356;2022-07-29T14:43:17;2.63;;;1.60;;
37051;SDS011;22964;52.272;13.356;2022-07-29T14:45:43;2.65;;;1.50;;
37051;SDS011;22964;52.272;13.356;2022-07-29T14:48:09;3.92;;;1.50;;
37051;SDS011;22964;52.272;13.356;2022-07-29T14:50:36;2.63;;;1.60;;
37051;SDS011;22964;52.272;13.356;2022-07-29T14:53:02;3.92;;;1.55;;
37051;SDS011;22964;52.272;13.356;2022-07-29T14:55:29;3.00;;;1.52;;
37051;SDS011;22964;52.272;13.356;2022-07-29T14:57:54;2.70;;;1.50;;
37051;SDS011;22964;52.272;13.356;2022-07-29T15:00:21;2.67;;;1.48;;
37051;SDS011;22964;52.272;13.356;2022-07-29T15:02:47;2.75;;;1.33;;
37051;SDS011;22964;52.272;13.356;2022-07-29T15:05:13;3.20;;;1.58;;
37051;SDS011;22964;52.272;13.356;2022-07-29T15:07:39;2.83;;;1.40;;
37051;SDS011;22964;52.272;13.356;2022-07-29T15:10:05;4.38;;;1.45;;
37051;SDS011;22964;52.272;13.356;2022-07-29T15:12:31;2.72;;;1.75;;
37051;SDS011;22964;52.272;13.356;2022-07-29T15:14:57;2.03;;;1.40;;
37051;SDS011;22964;52.272;13.356;2022-07-29T15:17:22;2.78;;;1.23;;
37051;SDS011;22964;52.272;13.356;2022-07-29T15:19:48;3.17;;;1.52;;
37051;SDS011;22964;52.272;13.356;2022-07-29T15:22:14;2.13;;;1.30;;
37051;SDS011;22964;52.272;13.356;2022-07-29T15:24:40;2.15;;;1.38;;
37051;SDS011;22964;52.272;13.356;2022-07-29T15:27:05;3.80;;;1.67;;
37051;SDS011;22964;52.272;13.356;2022-07-29T15:29:31;2.20;;;1.35;;
37051;SDS011;22964;52.272;13.356;2022-07-29T15:31:57;2.63;;;1.33;;
37051;SDS011;22964;52.272;13.356;2022-07-29T15:34:23;3.53;;;1.50;;